<?xml version="1.0" encoding="UTF-8" standalone="no" ?>
<gpx xmlns="http://www.topografix.com/GPX/1/1" xmlns:xsi="http://www.w3.org/2001/XMLSchema-instance" xsi:schemaLocation="http://www.topografix.com/GPX/1/1 http://www.topografix.com/GPX/1/1/gpx.xsd" version="1.1" creator="VisuGPX - https://www.visugpx.com">
  <metadata>
    <name>14244002-Gorges du Bès</name>
  </metadata>
  <trk>
    <name><![CDATA[14244002-Gorges du Bès]]></name>
    <extensions>
      <line xmlns="http://www.topografix.com/GPX/gpx_style/0/2">
        <color>0000FF</color>
        <width>4</width>
      </line>
    </extensions>
    <trkseg>
      <trkpt lat="44.86571" lon="3.09168">
        <ele>978</ele>
        <time>2022-02-09T17:01:06Z</time>
      </trkpt>
      <trkpt lat="44.86585" lon="3.09199">
        <ele>977</ele>
        <time>2022-02-09T17:01:41Z</time>
      </trkpt>
      <trkpt lat="44.86599" lon="3.09284">
        <ele>973</ele>
        <time>2022-02-09T17:03:03Z</time>
      </trkpt>
      <trkpt lat="44.86668" lon="3.09441">
        <ele>965</ele>
        <time>2022-02-09T17:05:58Z</time>
      </trkpt>
      <trkpt lat="44.86761" lon="3.09536">
        <ele>961</ele>
        <time>2022-02-09T17:08:31Z</time>
      </trkpt>
      <trkpt lat="44.86761" lon="3.09596">
        <ele>958</ele>
        <time>2022-02-09T17:09:28Z</time>
      </trkpt>
      <trkpt lat="44.86738" lon="3.09685">
        <ele>957</ele>
        <time>2022-02-09T17:10:58Z</time>
      </trkpt>
      <trkpt lat="44.86734" lon="3.09762">
        <ele>962</ele>
        <time>2022-02-09T17:12:11Z</time>
      </trkpt>
      <trkpt lat="44.86717" lon="3.09808">
        <ele>962</ele>
        <time>2022-02-09T17:13:00Z</time>
      </trkpt>
      <trkpt lat="44.86722" lon="3.09852">
        <ele>963</ele>
        <time>2022-02-09T17:13:42Z</time>
      </trkpt>
      <trkpt lat="44.86751" lon="3.09927">
        <ele>957</ele>
        <time>2022-02-09T17:15:03Z</time>
      </trkpt>
      <trkpt lat="44.86815" lon="3.09935">
        <ele>948</ele>
        <time>2022-02-09T17:16:28Z</time>
      </trkpt>
      <trkpt lat="44.86858" lon="3.09913">
        <ele>945</ele>
        <time>2022-02-09T17:17:29Z</time>
      </trkpt>
      <trkpt lat="44.86857" lon="3.09944">
        <ele>939</ele>
        <time>2022-02-09T17:17:59Z</time>
      </trkpt>
      <trkpt lat="44.86836" lon="3.10007">
        <ele>932</ele>
        <time>2022-02-09T17:19:05Z</time>
      </trkpt>
      <trkpt lat="44.86811" lon="3.10033">
        <ele>927</ele>
        <time>2022-02-09T17:19:46Z</time>
      </trkpt>
      <trkpt lat="44.86776" lon="3.10054">
        <ele>924</ele>
        <time>2022-02-09T17:20:37Z</time>
      </trkpt>
      <trkpt lat="44.86786" lon="3.10077">
        <ele>917</ele>
        <time>2022-02-09T17:21:02Z</time>
      </trkpt>
      <trkpt lat="44.86824" lon="3.10063">
        <ele>919</ele>
        <time>2022-02-09T17:21:55Z</time>
      </trkpt>
      <trkpt lat="44.8681" lon="3.10101">
        <ele>909</ele>
        <time>2022-02-09T17:22:35Z</time>
      </trkpt>
      <trkpt lat="44.86772" lon="3.10128">
        <ele>902</ele>
        <time>2022-02-09T17:23:32Z</time>
      </trkpt>
      <trkpt lat="44.8672" lon="3.10122">
        <ele>902</ele>
        <time>2022-02-09T17:24:42Z</time>
      </trkpt>
      <trkpt lat="44.86665" lon="3.10129">
        <ele>893</ele>
        <time>2022-02-09T17:25:55Z</time>
      </trkpt>
      <trkpt lat="44.8662" lon="3.10089">
        <ele>900</ele>
        <time>2022-02-09T17:27:06Z</time>
      </trkpt>
      <trkpt lat="44.8656" lon="3.10083">
        <ele>892</ele>
        <time>2022-02-09T17:28:27Z</time>
      </trkpt>
      <trkpt lat="44.86531" lon="3.10106">
        <ele>878</ele>
        <time>2022-02-09T17:29:11Z</time>
      </trkpt>
      <trkpt lat="44.8649" lon="3.10084">
        <ele>879</ele>
        <time>2022-02-09T17:30:09Z</time>
      </trkpt>
      <trkpt lat="44.8646" lon="3.09971">
        <ele>910</ele>
        <time>2022-02-09T17:32:04Z</time>
      </trkpt>
      <trkpt lat="44.86443" lon="3.09951">
        <ele>911</ele>
        <time>2022-02-09T17:32:33Z</time>
      </trkpt>
      <trkpt lat="44.86416" lon="3.09966">
        <ele>904</ele>
        <time>2022-02-09T17:33:12Z</time>
      </trkpt>
      <trkpt lat="44.86373" lon="3.1006">
        <ele>879</ele>
        <time>2022-02-09T17:34:58Z</time>
      </trkpt>
      <trkpt lat="44.86343" lon="3.10071">
        <ele>875</ele>
        <time>2022-02-09T17:35:39Z</time>
      </trkpt>
      <trkpt lat="44.86282" lon="3.10051">
        <ele>873</ele>
        <time>2022-02-09T17:37:03Z</time>
      </trkpt>
      <trkpt lat="44.86252" lon="3.10024">
        <ele>877</ele>
        <time>2022-02-09T17:37:50Z</time>
      </trkpt>
      <trkpt lat="44.86196" lon="3.10018">
        <ele>858</ele>
        <time>2022-02-09T17:39:05Z</time>
      </trkpt>
      <trkpt lat="44.86194" lon="3.09975">
        <ele>873</ele>
        <time>2022-02-09T17:39:46Z</time>
      </trkpt>
      <trkpt lat="44.86173" lon="3.09945">
        <ele>877</ele>
        <time>2022-02-09T17:40:26Z</time>
      </trkpt>
      <trkpt lat="44.86119" lon="3.09933">
        <ele>852</ele>
        <time>2022-02-09T17:41:39Z</time>
      </trkpt>
      <trkpt lat="44.86116" lon="3.09881">
        <ele>875</ele>
        <time>2022-02-09T17:42:28Z</time>
      </trkpt>
      <trkpt lat="44.86096" lon="3.09861">
        <ele>873</ele>
        <time>2022-02-09T17:43:01Z</time>
      </trkpt>
      <trkpt lat="44.86082" lon="3.09806">
        <ele>888</ele>
        <time>2022-02-09T17:43:56Z</time>
      </trkpt>
      <trkpt lat="44.86059" lon="3.09789">
        <ele>880</ele>
        <time>2022-02-09T17:44:31Z</time>
      </trkpt>
      <trkpt lat="44.8603" lon="3.09728">
        <ele>890</ele>
        <time>2022-02-09T17:45:40Z</time>
      </trkpt>
      <trkpt lat="44.86014" lon="3.09691">
        <ele>896</ele>
        <time>2022-02-09T17:46:21Z</time>
      </trkpt>
      <trkpt lat="44.85973" lon="3.09679">
        <ele>876</ele>
        <time>2022-02-09T17:47:17Z</time>
      </trkpt>
      <trkpt lat="44.8596" lon="3.09656">
        <ele>875</ele>
        <time>2022-02-09T17:47:45Z</time>
      </trkpt>
      <trkpt lat="44.85957" lon="3.0962">
        <ele>885</ele>
        <time>2022-02-09T17:48:19Z</time>
      </trkpt>
      <trkpt lat="44.85949" lon="3.09586">
        <ele>891</ele>
        <time>2022-02-09T17:48:53Z</time>
      </trkpt>
      <trkpt lat="44.85963" lon="3.09558">
        <ele>908</ele>
        <time>2022-02-09T17:49:25Z</time>
      </trkpt>
      <trkpt lat="44.85941" lon="3.09515">
        <ele>910</ele>
        <time>2022-02-09T17:50:16Z</time>
      </trkpt>
      <trkpt lat="44.85908" lon="3.095">
        <ele>903</ele>
        <time>2022-02-09T17:51:02Z</time>
      </trkpt>
      <trkpt lat="44.85841" lon="3.09482">
        <ele>897</ele>
        <time>2022-02-09T17:52:33Z</time>
      </trkpt>
      <trkpt lat="44.85791" lon="3.0949">
        <ele>873</ele>
        <time>2022-02-09T17:53:40Z</time>
      </trkpt>
      <trkpt lat="44.85756" lon="3.09389">
        <ele>909</ele>
        <time>2022-02-09T17:55:26Z</time>
      </trkpt>
      <trkpt lat="44.85716" lon="3.09341">
        <ele>919</ele>
        <time>2022-02-09T17:56:36Z</time>
      </trkpt>
      <trkpt lat="44.85692" lon="3.09353">
        <ele>908</ele>
        <time>2022-02-09T17:57:10Z</time>
      </trkpt>
      <trkpt lat="44.8567" lon="3.09333">
        <ele>916</ele>
        <time>2022-02-09T17:57:45Z</time>
      </trkpt>
      <trkpt lat="44.85655" lon="3.09357">
        <ele>898</ele>
        <time>2022-02-09T17:58:16Z</time>
      </trkpt>
      <trkpt lat="44.85607" lon="3.09347">
        <ele>891</ele>
        <time>2022-02-09T17:59:20Z</time>
      </trkpt>
      <trkpt lat="44.85575" lon="3.09312">
        <ele>899</ele>
        <time>2022-02-09T18:00:14Z</time>
      </trkpt>
      <trkpt lat="44.85559" lon="3.09259">
        <ele>917</ele>
        <time>2022-02-09T18:01:09Z</time>
      </trkpt>
      <trkpt lat="44.85544" lon="3.09273">
        <ele>907</ele>
        <time>2022-02-09T18:01:33Z</time>
      </trkpt>
      <trkpt lat="44.85532" lon="3.09305">
        <ele>889</ele>
        <time>2022-02-09T18:02:07Z</time>
      </trkpt>
      <trkpt lat="44.85504" lon="3.09244">
        <ele>913</ele>
        <time>2022-02-09T18:03:16Z</time>
      </trkpt>
      <trkpt lat="44.85401" lon="3.09265">
        <ele>908</ele>
        <time>2022-02-09T18:05:35Z</time>
      </trkpt>
      <trkpt lat="44.85384" lon="3.0928">
        <ele>907</ele>
        <time>2022-02-09T18:06:02Z</time>
      </trkpt>
      <trkpt lat="44.85368" lon="3.09258">
        <ele>920</ele>
        <time>2022-02-09T18:06:31Z</time>
      </trkpt>
      <trkpt lat="44.85359" lon="3.09287">
        <ele>912</ele>
        <time>2022-02-09T18:07:01Z</time>
      </trkpt>
      <trkpt lat="44.85338" lon="3.09311">
        <ele>912</ele>
        <time>2022-02-09T18:07:37Z</time>
      </trkpt>
      <trkpt lat="44.85305" lon="3.09377">
        <ele>904</ele>
        <time>2022-02-09T18:08:54Z</time>
      </trkpt>
      <trkpt lat="44.85282" lon="3.09356">
        <ele>918</ele>
        <time>2022-02-09T18:09:30Z</time>
      </trkpt>
      <trkpt lat="44.85256" lon="3.09377">
        <ele>921</ele>
        <time>2022-02-09T18:10:10Z</time>
      </trkpt>
      <trkpt lat="44.85258" lon="3.09408">
        <ele>911</ele>
        <time>2022-02-09T18:10:40Z</time>
      </trkpt>
      <trkpt lat="44.85232" lon="3.09427">
        <ele>906</ele>
        <time>2022-02-09T18:11:19Z</time>
      </trkpt>
      <trkpt lat="44.85229" lon="3.09456">
        <ele>895</ele>
        <time>2022-02-09T18:11:47Z</time>
      </trkpt>
      <trkpt lat="44.85174" lon="3.09485">
        <ele>881</ele>
        <time>2022-02-09T18:13:05Z</time>
      </trkpt>
      <trkpt lat="44.85129" lon="3.09352">
        <ele>926</ele>
        <time>2022-02-09T18:15:24Z</time>
      </trkpt>
      <trkpt lat="44.85073" lon="3.09363">
        <ele>915</ele>
        <time>2022-02-09T18:16:40Z</time>
      </trkpt>
      <trkpt lat="44.84994" lon="3.09394">
        <ele>908</ele>
        <time>2022-02-09T18:18:29Z</time>
      </trkpt>
      <trkpt lat="44.84967" lon="3.0932">
        <ele>926</ele>
        <time>2022-02-09T18:19:48Z</time>
      </trkpt>
      <trkpt lat="44.84918" lon="3.09268">
        <ele>924</ele>
        <time>2022-02-09T18:21:10Z</time>
      </trkpt>
      <trkpt lat="44.84952" lon="3.09177">
        <ele>934</ele>
        <time>2022-02-09T18:22:47Z</time>
      </trkpt>
      <trkpt lat="44.85036" lon="3.09145">
        <ele>946</ele>
        <time>2022-02-09T18:24:43Z</time>
      </trkpt>
      <trkpt lat="44.85147" lon="3.0911">
        <ele>956</ele>
        <time>2022-02-09T18:27:15Z</time>
      </trkpt>
      <trkpt lat="44.85194" lon="3.09059">
        <ele>960</ele>
        <time>2022-02-09T18:28:34Z</time>
      </trkpt>
      <trkpt lat="44.85216" lon="3.09022">
        <ele>964</ele>
        <time>2022-02-09T18:29:20Z</time>
      </trkpt>
      <trkpt lat="44.85271" lon="3.08986">
        <ele>966</ele>
        <time>2022-02-09T18:30:41Z</time>
      </trkpt>
      <trkpt lat="44.85307" lon="3.08942">
        <ele>971</ele>
        <time>2022-02-09T18:31:44Z</time>
      </trkpt>
      <trkpt lat="44.85373" lon="3.08937">
        <ele>971</ele>
        <time>2022-02-09T18:33:12Z</time>
      </trkpt>
      <trkpt lat="44.85422" lon="3.08919">
        <ele>972</ele>
        <time>2022-02-09T18:34:20Z</time>
      </trkpt>
      <trkpt lat="44.85422" lon="3.08886">
        <ele>975</ele>
        <time>2022-02-09T18:34:51Z</time>
      </trkpt>
      <trkpt lat="44.85444" lon="3.08875">
        <ele>976</ele>
        <time>2022-02-09T18:35:22Z</time>
      </trkpt>
      <trkpt lat="44.85457" lon="3.08835">
        <ele>979</ele>
        <time>2022-02-09T18:36:04Z</time>
      </trkpt>
      <trkpt lat="44.85483" lon="3.08816">
        <ele>979</ele>
        <time>2022-02-09T18:36:43Z</time>
      </trkpt>
      <trkpt lat="44.85509" lon="3.08735">
        <ele>983</ele>
        <time>2022-02-09T18:38:07Z</time>
      </trkpt>
      <trkpt lat="44.85518" lon="3.08666">
        <ele>986</ele>
        <time>2022-02-09T18:39:14Z</time>
      </trkpt>
      <trkpt lat="44.85547" lon="3.08631">
        <ele>986</ele>
        <time>2022-02-09T18:40:05Z</time>
      </trkpt>
      <trkpt lat="44.85633" lon="3.08611">
        <ele>987</ele>
        <time>2022-02-09T18:42:01Z</time>
      </trkpt>
      <trkpt lat="44.85658" lon="3.08627">
        <ele>987</ele>
        <time>2022-02-09T18:42:37Z</time>
      </trkpt>
      <trkpt lat="44.8569" lon="3.08699">
        <ele>984</ele>
        <time>2022-02-09T18:43:58Z</time>
      </trkpt>
      <trkpt lat="44.85721" lon="3.08737">
        <ele>983</ele>
        <time>2022-02-09T18:44:53Z</time>
      </trkpt>
      <trkpt lat="44.85764" lon="3.08911">
        <ele>977</ele>
        <time>2022-02-09T18:47:47Z</time>
      </trkpt>
      <trkpt lat="44.8581" lon="3.08915">
        <ele>978</ele>
        <time>2022-02-09T18:48:48Z</time>
      </trkpt>
      <trkpt lat="44.85849" lon="3.08973">
        <ele>976</ele>
        <time>2022-02-09T18:50:04Z</time>
      </trkpt>
      <trkpt lat="44.85864" lon="3.09086">
        <ele>974</ele>
        <time>2022-02-09T18:51:53Z</time>
      </trkpt>
      <trkpt lat="44.8589" lon="3.0912">
        <ele>976</ele>
        <time>2022-02-09T18:52:40Z</time>
      </trkpt>
      <trkpt lat="44.85966" lon="3.09118">
        <ele>983</ele>
        <time>2022-02-09T18:54:22Z</time>
      </trkpt>
      <trkpt lat="44.85993" lon="3.09159">
        <ele>984</ele>
        <time>2022-02-09T18:55:15Z</time>
      </trkpt>
      <trkpt lat="44.86022" lon="3.09229">
        <ele>983</ele>
        <time>2022-02-09T18:56:31Z</time>
      </trkpt>
      <trkpt lat="44.86073" lon="3.09258">
        <ele>984</ele>
        <time>2022-02-09T18:57:45Z</time>
      </trkpt>
      <trkpt lat="44.86109" lon="3.09296">
        <ele>983</ele>
        <time>2022-02-09T18:58:45Z</time>
      </trkpt>
      <trkpt lat="44.86219" lon="3.09224">
        <ele>977</ele>
        <time>2022-02-09T19:01:26Z</time>
      </trkpt>
      <trkpt lat="44.86287" lon="3.09141">
        <ele>975</ele>
        <time>2022-02-09T19:03:26Z</time>
      </trkpt>
      <trkpt lat="44.8643" lon="3.09091">
        <ele>970</ele>
        <time>2022-02-09T19:06:43Z</time>
      </trkpt>
      <trkpt lat="44.86468" lon="3.09144">
        <ele>971</ele>
        <time>2022-02-09T19:07:54Z</time>
      </trkpt>
      <trkpt lat="44.86515" lon="3.09178">
        <ele>973</ele>
        <time>2022-02-09T19:09:05Z</time>
      </trkpt>
      <trkpt lat="44.86543" lon="3.09178">
        <ele>975</ele>
        <time>2022-02-09T19:09:42Z</time>
      </trkpt>
    </trkseg>
  </trk>
</gpx>